Time;durP1;ratioP1;P1;durP2;ratioP2;P2;SDS_P1;SDS_P2;PMS_P1;PMS_P2;Temp;Humidity;BMP_temperature;BMP_pressure;BME280_temperature;BME280_humidity;BME280_pressure;Samples;Min_cycle;Max_cycle;Signal;HPM_P1;HPM_P2
2022/07/21 00:00:51;;;;;;;6.72;3.20;;;;;;;;;;5034872;28;20475;-87
2022/07/21 00:03:17;;;;;;;6.75;3.42;;;;;;;;;;5035868;28;20025;-87
2022/07/21 00:05:43;;;;;;;6.18;3.30;;;;;;;;;;5036990;28;20030;-87
2022/07/21 00:08:09;;;;;;;5.50;3.50;;;;;;;;;;5035677;28;20077;-87
2022/07/21 00:10:35;;;;;;;5.03;3.17;;;;;;;;;;5035787;28;20024;-87
2022/07/21 00:13:02;;;;;;;6.35;3.72;;;;;;;;;;5036987;28;20494;-88
2022/07/21 00:15:28;;;;;;;6.60;3.47;;;;;;;;;;5037479;28;20022;-88
2022/07/21 00:17:55;;;;;;;7.63;3.78;;;;;;;;;;5035735;28;20052;-87
2022/07/21 00:20:21;;;;;;;6.55;3.65;;;;;;;;;;5034858;28;20123;-87
2022/07/21 00:22:47;;;;;;;5.57;3.50;;;;;;;;;;5035226;28;20089;-88
2022/07/21 00:25:14;;;;;;;5.90;3.50;;;;;;;;;;5036771;28;20026;-87
2022/07/21 00:27:40;;;;;;;4.85;3.08;;;;;;;;;;5034865;28;20403;-88
2022/07/21 00:30:08;;;;;;;7.50;3.53;;;;;;;;;;5034808;28;20111;-87
2022/07/21 00:32:35;;;;;;;6.15;3.90;;;;;;;;;;5035055;28;20021;-87
2022/07/21 00:35:02;;;;;;;6.70;4.25;;;;;;;;;;5035477;28;20120;-87
2022/07/21 00:37:28;;;;;;;6.53;3.60;;;;;;;;;;5037201;28;20029;-87
2022/07/21 00:39:59;;;;;;;5.57;3.45;;;;;;;;;;5035170;28;20116;-87
2022/07/21 00:42:26;;;;;;;5.18;3.70;;;;;;;;;;5036503;28;20021;-87
2022/07/21 00:44:52;;;;;;;6.38;3.58;;;;;;;;;;5035316;28;20026;-87
2022/07/21 00:47:22;;;;;;;6.70;4.10;;;;;;;;;;5035049;28;20022;-87
2022/07/21 00:49:49;;;;;;;5.32;3.67;;;;;;;;;;5034430;28;20025;-87
2022/07/21 00:52:16;;;;;;;10.73;4.45;;;;;;;;;;5034784;28;20022;-87
2022/07/21 00:54:42;;;;;;;9.40;3.90;;;;;;;;;;5035375;28;20117;-87
2022/07/21 00:57:08;;;;;;;6.55;4.20;;;;;;;;;;5034836;28;20025;-87
2022/07/21 00:59:34;;;;;;;6.68;3.78;;;;;;;;;;5036640;28;20067;-87
2022/07/21 01:02:00;;;;;;;7.35;3.95;;;;;;;;;;5035598;28;20033;-87
2022/07/21 01:04:26;;;;;;;5.82;3.22;;;;;;;;;;5034149;28;20021;-87
2022/07/21 01:06:53;;;;;;;6.03;3.53;;;;;;;;;;5034554;28;20055;-87
2022/07/21 01:09:20;;;;;;;6.68;3.78;;;;;;;;;;5035572;28;20476;-87
2022/07/21 01:11:46;;;;;;;6.25;3.53;;;;;;;;;;5034779;28;20026;-87
2022/07/21 01:14:12;;;;;;;7.15;4.53;;;;;;;;;;5034632;28;20025;-87
2022/07/21 01:16:38;;;;;;;8.70;3.85;;;;;;;;;;5034953;28;20048;-87
2022/07/21 01:19:06;;;;;;;6.95;3.85;;;;;;;;;;5033976;28;20033;-87
2022/07/21 01:21:33;;;;;;;7.45;4.15;;;;;;;;;;5034098;28;20032;-86
2022/07/21 01:23:59;;;;;;;5.32;3.60;;;;;;;;;;5034999;28;20022;-87
2022/07/21 01:26:26;;;;;;;6.22;3.63;;;;;;;;;;5035445;28;20052;-87
2022/07/21 01:28:52;;;;;;;6.60;3.20;;;;;;;;;;5036609;28;20034;-87
2022/07/21 01:31:18;;;;;;;6.70;4.00;;;;;;;;;;5036867;28;20150;-87
2022/07/21 01:33:44;;;;;;;5.85;3.85;;;;;;;;;;5037121;28;20356;-87
2022/07/21 01:36:10;;;;;;;5.28;3.50;;;;;;;;;;5054573;28;20036;-87
2022/07/21 01:41:30;;;;;;;5.95;3.17;;;;;;;;;;5054081;28;20106;-87
2022/07/21 01:43:57;;;;;;;5.05;3.20;;;;;;;;;;5054413;28;20088;-87
2022/07/21 01:46:23;;;;;;;5.78;3.50;;;;;;;;;;5037425;28;20079;-87
2022/07/21 01:48:49;;;;;;;6.20;3.53;;;;;;;;;;5037385;28;20025;-87
2022/07/21 01:51:15;;;;;;;5.32;3.60;;;;;;;;;;5036873;28;20017;-87
2022/07/21 01:53:41;;;;;;;5.78;3.53;;;;;;;;;;5037530;28;20091;-87
2022/07/21 01:56:08;;;;;;;10.07;4.15;;;;;;;;;;5038149;28;20020;-87
2022/07/21 01:58:34;;;;;;;6.05;3.72;;;;;;;;;;5037613;28;20050;-87
2022/07/21 02:01:00;;;;;;;5.40;3.78;;;;;;;;;;5039998;28;20086;-87
2022/07/21 02:03:26;;;;;;;5.70;3.53;;;;;;;;;;5042876;28;20369;-89
2022/07/21 02:05:52;;;;;;;5.50;3.83;;;;;;;;;;5044219;28;20047;-87
2022/07/21 02:08:18;;;;;;;6.68;3.38;;;;;;;;;;5041868;28;20045;-87
2022/07/21 02:10:44;;;;;;;4.75;3.38;;;;;;;;;;5041899;28;20390;-87
2022/07/21 02:13:10;;;;;;;6.50;3.30;;;;;;;;;;5041309;28;20092;-87
2022/07/21 02:15:36;;;;;;;5.57;3.25;;;;;;;;;;5041817;28;20029;-87
2022/07/21 02:18:02;;;;;;;6.22;3.72;;;;;;;;;;5041665;28;20086;-88
2022/07/21 02:20:28;;;;;;;6.47;3.50;;;;;;;;;;5040551;28;20032;-87
2022/07/21 02:22:54;;;;;;;6.25;3.63;;;;;;;;;;5041476;28;20025;-87
2022/07/21 02:25:20;;;;;;;6.70;3.72;;;;;;;;;;5041519;28;20055;-87
2022/07/21 02:27:47;;;;;;;6.20;3.50;;;;;;;;;;5041286;28;20059;-87
2022/07/21 02:30:13;;;;;;;6.88;3.80;;;;;;;;;;5041786;28;20033;-87
2022/07/21 02:32:39;;;;;;;5.55;3.40;;;;;;;;;;5041906;28;20078;-87
2022/07/21 02:35:05;;;;;;;7.07;3.70;;;;;;;;;;5059647;28;20027;-87
2022/07/21 02:37:32;;;;;;;5.50;3.67;;;;;;;;;;5041425;28;20115;-88
2022/07/21 02:39:58;;;;;;;6.03;3.50;;;;;;;;;;5041229;28;20036;-87
2022/07/21 02:42:24;;;;;;;6.20;4.15;;;;;;;;;;5041304;28;20025;-87
2022/07/21 02:44:50;;;;;;;6.22;3.95;;;;;;;;;;5040263;28;20054;-87
2022/07/21 02:47:16;;;;;;;6.63;4.22;;;;;;;;;;5041345;28;20013;-86
2022/07/21 02:49:44;;;;;;;6.70;3.75;;;;;;;;;;5042394;28;20410;-87
2022/07/21 02:52:11;;;;;;;5.53;3.25;;;;;;;;;;5039378;28;20029;-86
2022/07/21 02:54:37;;;;;;;6.63;3.88;;;;;;;;;;5037397;28;20406;-86
2022/07/21 02:57:03;;;;;;;5.30;3.25;;;;;;;;;;5038653;28;20537;-86
2022/07/21 02:59:29;;;;;;;7.57;3.60;;;;;;;;;;5040763;28;20036;-86
2022/07/21 03:01:55;;;;;;;5.72;3.65;;;;;;;;;;5060355;28;20029;-86
2022/07/21 03:04:21;;;;;;;5.47;3.60;;;;;;;;;;5055075;28;20017;-86
2022/07/21 03:06:47;;;;;;;5.90;3.60;;;;;;;;;;5054276;28;20022;-86
2022/07/21 03:09:13;;;;;;;6.30;4.00;;;;;;;;;;5044365;28;20035;-86
2022/07/21 03:11:39;;;;;;;5.55;3.97;;;;;;;;;;5057469;28;20479;-87
2022/07/21 03:14:05;;;;;;;7.28;3.80;;;;;;;;;;5042656;28;20025;-86
2022/07/21 03:16:33;;;;;;;6.22;3.72;;;;;;;;;;5036467;28;20032;-87
2022/07/21 03:18:59;;;;;;;6.35;3.67;;;;;;;;;;5051918;28;20036;-86
2022/07/21 03:21:25;;;;;;;6.43;3.85;;;;;;;;;;5037193;28;20029;-87
2022/07/21 03:23:51;;;;;;;6.68;3.97;;;;;;;;;;5040640;28;20024;-86
2022/07/21 03:26:17;;;;;;;5.57;4.03;;;;;;;;;;5050441;28;20506;-87
2022/07/21 03:28:44;;;;;;;6.22;3.95;;;;;;;;;;5051835;28;20029;-86
2022/07/21 03:31:10;;;;;;;5.85;3.95;;;;;;;;;;5051550;28;20036;-86
2022/07/21 03:33:36;;;;;;;6.05;3.80;;;;;;;;;;5036225;28;20032;-86
2022/07/21 03:36:03;;;;;;;6.10;3.67;;;;;;;;;;5053944;28;20100;-86
2022/07/21 03:38:29;;;;;;;6.50;3.97;;;;;;;;;;5065372;28;20024;-86
2022/07/21 03:40:55;;;;;;;6.00;3.83;;;;;;;;;;5038543;28;20041;-86
2022/07/21 03:43:21;;;;;;;6.18;3.90;;;;;;;;;;5035746;28;20025;-86
2022/07/21 03:45:47;;;;;;;5.70;3.50;;;;;;;;;;5053733;28;20029;-86
2022/07/21 03:48:13;;;;;;;5.80;3.42;;;;;;;;;;5042400;28;20032;-86
2022/07/21 03:50:40;;;;;;;5.30;3.85;;;;;;;;;;5054399;28;20029;-86
2022/07/21 03:53:07;;;;;;;7.78;4.25;;;;;;;;;;5035744;28;20032;-86
2022/07/21 03:55:33;;;;;;;5.72;3.92;;;;;;;;;;5036594;28;20537;-86
2022/07/21 03:58:01;;;;;;;6.28;3.80;;;;;;;;;;5041045;28;20047;-86
2022/07/21 04:00:26;;;;;;;7.03;4.10;;;;;;;;;;5036902;28;20028;-86
2022/07/21 04:02:53;;;;;;;6.53;4.55;;;;;;;;;;5024149;28;20384;-86
2022/07/21 04:05:19;;;;;;;6.60;4.38;;;;;;;;;;5036146;28;20078;-86
2022/07/21 04:07:46;;;;;;;6.80;4.10;;;;;;;;;;5030698;28;20028;-86
2022/07/21 04:10:13;;;;;;;10.13;4.68;;;;;;;;;;5035755;28;20055;-86
2022/07/21 04:12:39;;;;;;;11.07;4.47;;;;;;;;;;5054247;28;20021;-86
2022/07/21 04:15:06;;;;;;;6.43;3.72;;;;;;;;;;5053476;28;20056;-86
2022/07/21 04:17:32;;;;;;;13.23;5.53;;;;;;;;;;5027362;28;20479;-86
2022/07/21 04:19:58;;;;;;;12.38;4.85;;;;;;;;;;5042362;28;20442;-86
2022/07/21 04:22:24;;;;;;;7.57;4.35;;;;;;;;;;5050720;28;20500;-86
2022/07/21 04:24:50;;;;;;;6.75;4.00;;;;;;;;;;5055255;28;20106;-87
2022/07/21 04:27:16;;;;;;;7.15;4.55;;;;;;;;;;5041178;28;20151;-87
2022/07/21 04:29:42;;;;;;;6.47;4.07;;;;;;;;;;5034473;28;20018;-86
2022/07/21 04:32:08;;;;;;;5.88;4.25;;;;;;;;;;5050995;28;20040;-86
2022/07/21 04:34:34;;;;;;;7.65;4.65;;;;;;;;;;5029317;28;20021;-86
2022/07/21 04:37:00;;;;;;;6.00;4.32;;;;;;;;;;5041977;28;20029;-86
2022/07/21 04:39:27;;;;;;;8.23;4.50;;;;;;;;;;5073355;28;20029;-87
2022/07/21 04:41:53;;;;;;;6.20;4.50;;;;;;;;;;5052274;28;20521;-86
2022/07/21 04:44:19;;;;;;;12.15;5.28;;;;;;;;;;5035386;28;20028;-86
2022/07/21 04:46:45;;;;;;;8.18;4.60;;;;;;;;;;5050232;28;20036;-87
2022/07/21 04:49:11;;;;;;;9.65;4.70;;;;;;;;;;5035375;28;20104;-86
2022/07/21 04:51:37;;;;;;;6.75;4.18;;;;;;;;;;5057597;28;20108;-86
2022/07/21 04:54:04;;;;;;;5.80;4.15;;;;;;;;;;5058319;28;20025;-87
2022/07/21 04:56:30;;;;;;;6.88;4.07;;;;;;;;;;5043913;28;20116;-86
2022/07/21 04:58:56;;;;;;;6.30;4.03;;;;;;;;;;5062599;28;20482;-86
2022/07/21 05:01:22;;;;;;;7.00;4.78;;;;;;;;;;5042826;28;20043;-87
2022/07/21 05:03:48;;;;;;;7.10;4.30;;;;;;;;;;5051738;28;20017;-86
2022/07/21 05:06:14;;;;;;;8.20;4.47;;;;;;;;;;5035348;28;20075;-86
2022/07/21 05:08:40;;;;;;;7.55;4.07;;;;;;;;;;5052826;28;20048;-86
2022/07/21 05:11:06;;;;;;;10.93;5.35;;;;;;;;;;5039587;28;20025;-85
2022/07/21 05:13:32;;;;;;;8.63;4.30;;;;;;;;;;5036777;28;20028;-86
2022/07/21 05:15:58;;;;;;;7.38;4.57;;;;;;;;;;5041199;28;20028;-86
2022/07/21 05:18:24;;;;;;;8.10;5.20;;;;;;;;;;5054579;28;20048;-86
2022/07/21 05:20:50;;;;;;;9.02;5.30;;;;;;;;;;5039086;28;20517;-86
2022/07/21 05:23:16;;;;;;;6.13;4.15;;;;;;;;;;5041440;28;20078;-85
2022/07/21 05:25:42;;;;;;;8.73;5.00;;;;;;;;;;5049250;28;20391;-86
2022/07/21 05:28:08;;;;;;;7.05;4.65;;;;;;;;;;5030721;28;20037;-86
2022/07/21 05:30:35;;;;;;;8.57;4.80;;;;;;;;;;5043688;28;20394;-86
2022/07/21 05:33:01;;;;;;;10.40;5.15;;;;;;;;;;5050900;28;20379;-85
2022/07/21 05:35:28;;;;;;;9.13;5.35;;;;;;;;;;5036720;28;20024;-86
2022/07/21 05:37:54;;;;;;;8.10;4.93;;;;;;;;;;5056519;28;20025;-86
2022/07/21 05:40:20;;;;;;;7.55;4.85;;;;;;;;;;5035580;28;20489;-85
2022/07/21 05:42:46;;;;;;;7.93;5.18;;;;;;;;;;5037903;28;20057;-86
2022/07/21 05:45:12;;;;;;;8.18;4.97;;;;;;;;;;5034166;28;20102;-86
2022/07/21 05:47:39;;;;;;;7.43;4.70;;;;;;;;;;5034755;28;20067;-86
2022/07/21 05:50:05;;;;;;;6.57;4.43;;;;;;;;;;5034457;28;20082;-86
2022/07/21 05:52:31;;;;;;;8.25;4.75;;;;;;;;;;5056098;28;20562;-85
2022/07/21 05:54:57;;;;;;;6.40;4.72;;;;;;;;;;5034557;28;20035;-86
2022/07/21 05:57:23;;;;;;;7.43;4.70;;;;;;;;;;5051623;28;20017;-86
2022/07/21 05:59:49;;;;;;;12.35;6.90;;;;;;;;;;5035107;28;20399;-87
2022/07/21 06:02:15;;;;;;;9.02;4.70;;;;;;;;;;5035749;28;20463;-87
2022/07/21 06:04:41;;;;;;;7.47;5.00;;;;;;;;;;5035449;28;20025;-87
2022/07/21 06:07:07;;;;;;;15.77;7.28;;;;;;;;;;5054342;28;20487;-87
2022/07/21 06:09:36;;;;;;;7.25;5.30;;;;;;;;;;5036724;28;20075;-88
2022/07/21 06:12:02;;;;;;;8.10;5.45;;;;;;;;;;5036607;28;20059;-87
2022/07/21 06:14:28;;;;;;;9.18;5.50;;;;;;;;;;5037018;28;20048;-87
2022/07/21 06:16:55;;;;;;;10.82;5.55;;;;;;;;;;5054449;28;20029;-87
2022/07/21 06:19:21;;;;;;;9.77;5.53;;;;;;;;;;5035728;28;20116;-88
2022/07/21 06:21:47;;;;;;;7.45;5.80;;;;;;;;;;5034832;28;20104;-87
2022/07/21 06:24:13;;;;;;;9.77;5.90;;;;;;;;;;5037260;28;20544;-88
2022/07/21 06:26:39;;;;;;;8.27;6.18;;;;;;;;;;5036204;28;20094;-86
2022/07/21 06:29:06;;;;;;;10.57;5.97;;;;;;;;;;5036274;28;20430;-86
2022/07/21 06:31:32;;;;;;;9.45;7.68;;;;;;;;;;5033679;28;20415;-86
2022/07/21 06:33:58;;;;;;;9.43;7.45;;;;;;;;;;5037283;28;20025;-87
2022/07/21 06:36:24;;;;;;;9.07;7.15;;;;;;;;;;5026227;28;20044;-88
2022/07/21 06:38:50;;;;;;;14.73;7.50;;;;;;;;;;5036377;28;20027;-87
2022/07/21 06:41:16;;;;;;;9.82;7.60;;;;;;;;;;5037442;28;20101;-87
2022/07/21 06:43:42;;;;;;;14.00;8.88;;;;;;;;;;5054022;28;20005;-87
2022/07/21 06:46:08;;;;;;;10.23;7.57;;;;;;;;;;5037279;28;20021;-86
2022/07/21 06:48:34;;;;;;;14.73;8.32;;;;;;;;;;5039537;28;20483;-86
2022/07/21 06:51:00;;;;;;;10.95;7.82;;;;;;;;;;5039835;28;20037;-87
2022/07/21 06:53:26;;;;;;;10.32;8.07;;;;;;;;;;5057469;28;20112;-86
2022/07/21 06:55:52;;;;;;;11.35;8.57;;;;;;;;;;5039972;28;20564;-87
2022/07/21 06:58:20;;;;;;;10.20;8.05;;;;;;;;;;5038934;28;20090;-86
2022/07/21 07:00:46;;;;;;;14.45;8.25;;;;;;;;;;5067481;28;20025;-88
2022/07/21 07:03:13;;;;;;;9.60;8.30;;;;;;;;;;5045672;28;20016;-88
2022/07/21 07:05:39;;;;;;;9.10;8.10;;;;;;;;;;5042366;28;20037;-86
2022/07/21 07:08:05;;;;;;;12.93;8.88;;;;;;;;;;5051710;28;20045;-86
2022/07/21 07:10:31;;;;;;;12.38;9.00;;;;;;;;;;5022765;28;20039;-87
2022/07/21 07:12:57;;;;;;;11.63;8.73;;;;;;;;;;5055660;28;20044;-87
2022/07/21 07:15:24;;;;;;;12.02;8.63;;;;;;;;;;5032151;28;20025;-86
2022/07/21 07:17:50;;;;;;;11.50;8.45;;;;;;;;;;5048143;28;20112;-86
2022/07/21 07:20:16;;;;;;;10.85;7.95;;;;;;;;;;5045209;28;20025;-87
2022/07/21 07:22:42;;;;;;;11.13;8.07;;;;;;;;;;5045392;28;20021;-84
2022/07/21 07:25:09;;;;;;;11.32;8.55;;;;;;;;;;5045256;28;20028;-87
2022/07/21 07:27:35;;;;;;;9.70;8.18;;;;;;;;;;5041773;28;20045;-86
2022/07/21 07:30:01;;;;;;;11.68;8.93;;;;;;;;;;5068655;28;20029;-87
2022/07/21 07:32:27;;;;;;;12.63;8.25;;;;;;;;;;5079971;28;20081;-88
2022/07/21 07:34:53;;;;;;;11.45;8.43;;;;;;;;;;5057290;28;20033;-87
2022/07/21 07:37:19;;;;;;;11.48;9.57;;;;;;;;;;5042026;28;20047;-86
2022/07/21 07:39:45;;;;;;;12.20;8.63;;;;;;;;;;5037495;28;20488;-86
2022/07/21 07:42:11;;;;;;;10.63;8.13;;;;;;;;;;5046260;28;20029;-85
2022/07/21 07:44:37;;;;;;;10.20;8.52;;;;;;;;;;5062216;28;20170;-88
2022/07/21 07:47:03;;;;;;;13.13;8.05;;;;;;;;;;5046606;28;20021;-87
2022/07/21 07:49:30;;;;;;;11.35;8.50;;;;;;;;;;5042772;28;20025;-87
2022/07/21 07:51:56;;;;;;;14.80;8.32;;;;;;;;;;5052164;28;20046;-87
2022/07/21 07:54:22;;;;;;;10.75;7.90;;;;;;;;;;5049953;28;20025;-86
2022/07/21 07:56:48;;;;;;;9.85;8.05;;;;;;;;;;5038854;28;20527;-88
2022/07/21 07:59:14;;;;;;;11.65;8.13;;;;;;;;;;5068568;28;20055;-86
2022/07/21 08:01:41;;;;;;;11.48;7.93;;;;;;;;;;5060248;28;20123;-86
2022/07/21 08:04:07;;;;;;;10.35;7.68;;;;;;;;;;5047827;28;20171;-85
2022/07/21 08:06:33;;;;;;;11.82;8.00;;;;;;;;;;5028804;28;20029;-85
2022/07/21 08:08:59;;;;;;;8.82;7.18;;;;;;;;;;5048991;28;20021;-85
2022/07/21 08:11:25;;;;;;;10.85;8.40;;;;;;;;;;5026607;28;20040;-84
2022/07/21 08:13:52;;;;;;;10.77;8.40;;;;;;;;;;5037972;28;20025;-84
2022/07/21 08:16:18;;;;;;;8.75;7.72;;;;;;;;;;5040319;28;20024;-85
2022/07/21 08:18:44;;;;;;;10.68;7.65;;;;;;;;;;5059555;28;20051;-85
2022/07/21 08:21:10;;;;;;;9.77;8.07;;;;;;;;;;5038512;28;20028;-85
2022/07/21 08:23:37;;;;;;;10.77;8.45;;;;;;;;;;5061230;28;20016;-86
2022/07/21 08:26:03;;;;;;;10.68;7.97;;;;;;;;;;5052368;28;20555;-86
2022/07/21 08:28:29;;;;;;;10.60;8.23;;;;;;;;;;5045819;28;20055;-85
2022/07/21 08:30:55;;;;;;;10.75;8.50;;;;;;;;;;5043266;28;20028;-84
2022/07/21 08:33:21;;;;;;;9.50;7.68;;;;;;;;;;5038850;28;20033;-86
2022/07/21 08:35:47;;;;;;;9.73;7.88;;;;;;;;;;5043007;28;20021;-85
2022/07/21 08:38:13;;;;;;;9.52;7.63;;;;;;;;;;5045182;28;20028;-86
2022/07/21 08:40:41;;;;;;;10.02;8.00;;;;;;;;;;5044187;28;20048;-88
2022/07/21 08:43:08;;;;;;;11.52;8.13;;;;;;;;;;5065109;28;20026;-85
2022/07/21 08:45:34;;;;;;;9.77;8.20;;;;;;;;;;5033577;28;20078;-85
2022/07/21 08:48:01;;;;;;;11.60;8.48;;;;;;;;;;5042387;28;20021;-86
2022/07/21 08:50:32;;;;;;;9.52;8.05;;;;;;;;;;5036791;28;20052;-86
2022/07/21 08:52:58;;;;;;;9.15;8.05;;;;;;;;;;5037829;28;20064;-86
2022/07/21 08:55:24;;;;;;;11.80;8.35;;;;;;;;;;5047258;28;20025;-86
2022/07/21 08:57:50;;;;;;;10.15;7.72;;;;;;;;;;5059267;28;20028;-86
2022/07/21 09:00:16;;;;;;;11.75;8.43;;;;;;;;;;5062603;28;20040;-85
2022/07/21 09:02:42;;;;;;;10.80;7.63;;;;;;;;;;5061537;28;20020;-86
2022/07/21 09:05:09;;;;;;;14.85;8.75;;;;;;;;;;5042453;28;20053;-86
2022/07/21 09:07:50;;;;;;;15.40;7.65;;;;;;;;;;5060041;28;20025;-88
2022/07/21 09:10:21;;;;;;;9.32;7.30;;;;;;;;;;5045994;28;20090;-86
2022/07/21 09:12:51;;;;;;;8.48;7.25;;;;;;;;;;5037075;28;20025;-88
2022/07/21 09:15:21;;;;;;;10.20;7.07;;;;;;;;;;5039994;28;20490;-88
2022/07/21 09:18:03;;;;;;;10.25;7.22;;;;;;;;;;5032982;28;20498;-88
2022/07/21 09:20:29;;;;;;;10.63;7.28;;;;;;;;;;5036252;28;20021;-88
2022/07/21 09:23:21;;;;;;;8.20;7.13;;;;;;;;;;5035761;28;20029;-88
2022/07/21 09:25:47;;;;;;;;;;;;;;;;;;5056455;28;20037;-87
2022/07/21 09:28:16;;;;;;;8.60;7.68;;;;;;;;;;5035630;28;20349;-88
2022/07/21 09:31:01;;;;;;;11.90;7.63;;;;;;;;;;5056885;28;20041;-86
2022/07/21 09:33:31;;;;;;;8.75;6.65;;;;;;;;;;5050522;28;20037;-86
2022/07/21 09:35:59;;;;;;;8.35;7.20;;;;;;;;;;5057819;28;20116;-88
2022/07/21 09:38:26;;;;;;;8.95;7.72;;;;;;;;;;5035292;28;20036;-86
2022/07/21 09:40:52;;;;;;;11.13;8.18;;;;;;;;;;5060120;28;20052;-88
2022/07/21 09:43:32;;;;;;;8.68;7.18;;;;;;;;;;5058086;28;20021;-87
2022/07/21 09:46:01;;;;;;;8.55;7.45;;;;;;;;;;5055354;28;20051;-86
2022/07/21 09:48:35;;;;;;;10.05;8.10;;;;;;;;;;5053233;28;20024;-84
2022/07/21 09:51:19;;;;;;;10.68;7.28;;;;;;;;;;5063907;28;20032;-86
2022/07/21 09:53:51;;;;;;;8.13;6.53;;;;;;;;;;5039027;28;20029;-87
2022/07/21 09:56:18;;;;;;;8.45;7.55;;;;;;;;;;5047285;28;20108;-85
2022/07/21 09:58:48;;;;;;;9.77;7.35;;;;;;;;;;5052875;28;20029;-84
2022/07/21 10:01:14;;;;;;;9.52;7.50;;;;;;;;;;5036715;28;20499;-87
2022/07/21 10:03:40;;;;;;;11.10;7.68;;;;;;;;;;5049489;28;20033;-86
2022/07/21 10:06:07;;;;;;;9.95;7.88;;;;;;;;;;5047102;28;20479;-85
2022/07/21 10:08:34;;;;;;;10.35;7.60;;;;;;;;;;5042481;28;20048;-85
2022/07/21 10:11:00;;;;;;;9.43;8.15;;;;;;;;;;5052314;28;20025;-85
2022/07/21 10:13:27;;;;;;;11.75;7.55;;;;;;;;;;5032844;28;20028;-85
2022/07/21 10:15:54;;;;;;;9.18;7.45;;;;;;;;;;5040172;28;20029;-87
2022/07/21 10:18:34;;;;;;;9.00;7.82;;;;;;;;;;5030150;28;20503;-85
2022/07/21 10:21:05;;;;;;;9.48;7.38;;;;;;;;;;5036387;28;20380;-85
2022/07/21 10:23:41;;;;;;;7.75;6.80;;;;;;;;;;5039148;28;20028;-84
2022/07/21 10:26:08;;;;;;;8.25;6.95;;;;;;;;;;5021219;28;20029;-85
2022/07/21 10:28:34;;;;;;;9.05;7.20;;;;;;;;;;5038213;28;20068;-85
2022/07/21 10:31:12;;;;;;;10.55;7.70;;;;;;;;;;5038170;28;20502;-86
2022/07/21 10:33:50;;;;;;;10.90;7.88;;;;;;;;;;5030985;28;20119;-86
2022/07/21 10:36:28;;;;;;;8.75;7.75;;;;;;;;;;5040170;28;20394;-84
2022/07/21 10:39:09;;;;;;;10.18;8.27;;;;;;;;;;5037679;28;20060;-86
2022/07/21 10:41:37;;;;;;;11.00;8.68;;;;;;;;;;5037262;28;20037;-86
2022/07/21 10:44:23;;;;;;;9.75;8.18;;;;;;;;;;5057959;28;20025;-86
2022/07/21 10:47:30;;;;;;;9.40;8.13;;;;;;;;;;5041790;28;20018;-86
2022/07/21 10:49:57;;;;;;;9.73;8.35;;;;;;;;;;4956046;29;20055;-85
2022/07/21 10:52:35;;;;;;;9.18;7.72;;;;;;;;;;4955950;29;20027;-86
2022/07/21 10:55:10;;;;;;;9.15;8.20;;;;;;;;;;4955612;29;20129;-85
2022/07/21 10:57:38;;;;;;;11.13;8.45;;;;;;;;;;4938144;29;20023;-84
2022/07/21 11:00:19;;;;;;;11.85;8.57;;;;;;;;;;4927395;29;20055;-85
2022/07/21 11:02:49;;;;;;;8.80;7.90;;;;;;;;;;4956480;29;20166;-85
2022/07/21 11:05:15;;;;;;;9.25;8.25;;;;;;;;;;4937606;29;20055;-85
2022/07/21 11:08:00;;;;;;;10.27;9.25;;;;;;;;;;4937980;29;20039;-87
2022/07/21 11:10:26;;;;;;;10.10;8.35;;;;;;;;;;4926357;29;20054;-85
2022/07/21 11:12:55;;;;;;;12.02;8.95;;;;;;;;;;4919550;29;20030;-85
2022/07/21 11:15:40;;;;;;;10.90;8.55;;;;;;;;;;4934393;29;20098;-86
2022/07/21 11:18:06;;;;;;;10.07;8.50;;;;;;;;;;4953848;29;20515;-85
2022/07/21 11:20:32;;;;;;;14.50;8.73;;;;;;;;;;4978441;28;20126;-85
2022/07/21 11:23:02;;;;;;;11.60;8.93;;;;;;;;;;5037059;28;20033;-84
2022/07/21 11:25:29;;;;;;;10.48;8.68;;;;;;;;;;5055354;28;20475;-85
2022/07/21 11:27:55;;;;;;;9.80;8.30;;;;;;;;;;5054322;28;20506;-85
2022/07/21 11:30:21;;;;;;;10.02;8.18;;;;;;;;;;5035709;28;20079;-85
2022/07/21 11:32:48;;;;;;;9.70;8.45;;;;;;;;;;5042365;28;20086;-85
2022/07/21 11:35:14;;;;;;;14.52;9.63;;;;;;;;;;5034313;28;20021;-84
2022/07/21 11:37:41;;;;;;;9.90;8.55;;;;;;;;;;5017131;28;20026;-84
2022/07/21 11:40:11;;;;;;;10.57;8.45;;;;;;;;;;5021042;28;20533;-85
2022/07/21 11:42:37;;;;;;;11.27;8.40;;;;;;;;;;5028734;28;20479;-84
2022/07/21 11:45:05;;;;;;;9.98;8.90;;;;;;;;;;5066300;28;20056;-86
2022/07/21 11:47:31;;;;;;;11.57;8.75;;;;;;;;;;5060866;28;20036;-86
2022/07/21 11:49:58;;;;;;;11.88;8.57;;;;;;;;;;5054965;28;20387;-86
2022/07/21 11:52:26;;;;;;;10.95;8.60;;;;;;;;;;5054577;28;20028;-87
2022/07/21 11:54:53;;;;;;;10.88;9.00;;;;;;;;;;5033270;28;20029;-86
2022/07/21 11:57:20;;;;;;;9.60;8.45;;;;;;;;;;5062667;28;20036;-88
2022/07/21 11:59:47;;;;;;;10.32;8.25;;;;;;;;;;5035429;28;20367;-86
2022/07/21 12:02:20;;;;;;;10.40;9.35;;;;;;;;;;5058956;28;20096;-86
2022/07/21 12:04:51;;;;;;;10.60;9.02;;;;;;;;;;5045517;28;20032;-86
2022/07/21 12:07:20;;;;;;;10.07;8.73;;;;;;;;;;5035431;28;20403;-87
2022/07/21 12:09:47;;;;;;;11.55;9.77;;;;;;;;;;5060417;28;20020;-86
2022/07/21 12:12:14;;;;;;;10.65;8.77;;;;;;;;;;5043454;28;20025;-86
2022/07/21 12:14:44;;;;;;;10.95;9.00;;;;;;;;;;5053092;28;20032;-87
2022/07/21 12:17:10;;;;;;;11.98;8.70;;;;;;;;;;5052514;28;20029;-86
2022/07/21 12:19:37;;;;;;;11.93;9.15;;;;;;;;;;5053764;28;20086;-86
2022/07/21 12:22:03;;;;;;;10.02;8.80;;;;;;;;;;5054577;28;20029;-87
2022/07/21 12:24:52;;;;;;;11.15;8.05;;;;;;;;;;5035792;28;20062;-84
2022/07/21 12:27:18;;;;;;;10.73;8.18;;;;;;;;;;5034594;28;20513;-85
2022/07/21 12:29:44;;;;;;;10.57;8.13;;;;;;;;;;5034839;28;20033;-85
2022/07/21 12:32:11;;;;;;;10.75;8.77;;;;;;;;;;5050746;28;20583;-84
2022/07/21 12:34:54;;;;;;;12.00;8.77;;;;;;;;;;5043364;28;20036;-87
2022/07/21 12:37:20;;;;;;;10.60;8.82;;;;;;;;;;5035391;28;20125;-85
2022/07/21 12:40:03;;;;;;;9.73;8.73;;;;;;;;;;5051904;28;20104;-85
2022/07/21 12:42:31;;;;;;;9.65;8.65;;;;;;;;;;5048984;28;20057;-85
2022/07/21 12:44:58;;;;;;;9.82;8.88;;;;;;;;;;5054489;28;20028;-85
2022/07/21 12:47:24;;;;;;;10.05;8.55;;;;;;;;;;5046788;28;20490;-85
2022/07/21 12:49:56;;;;;;;10.10;8.93;;;;;;;;;;5029441;28;20021;-87
2022/07/21 12:52:23;;;;;;;9.63;7.85;;;;;;;;;;5046956;28;20478;-86
2022/07/21 12:54:49;;;;;;;9.90;8.82;;;;;;;;;;5063451;28;20017;-85
2022/07/21 12:57:15;;;;;;;10.13;8.40;;;;;;;;;;5035088;28;20036;-85
2022/07/21 12:59:41;;;;;;;10.48;8.80;;;;;;;;;;5036275;28;20438;-84
2022/07/21 13:02:07;;;;;;;9.90;8.90;;;;;;;;;;5050330;28;20029;-84
2022/07/21 13:04:33;;;;;;;9.73;8.68;;;;;;;;;;5036667;28;20021;-83
2022/07/21 13:06:59;;;;;;;9.77;8.77;;;;;;;;;;5055026;28;20063;-85
2022/07/21 13:09:25;;;;;;;10.52;8.70;;;;;;;;;;5034792;28;20056;-85
2022/07/21 13:11:51;;;;;;;10.60;9.25;;;;;;;;;;5034922;28;20056;-86
2022/07/21 13:14:17;;;;;;;9.60;8.50;;;;;;;;;;5060571;28;20529;-86
2022/07/21 13:16:43;;;;;;;10.45;8.77;;;;;;;;;;5068863;28;20089;-86
2022/07/21 13:19:09;;;;;;;10.05;9.05;;;;;;;;;;5053055;28;20123;-85
2022/07/21 13:21:36;;;;;;;10.23;9.13;;;;;;;;;;5052639;28;20499;-85
2022/07/21 13:24:02;;;;;;;11.30;9.38;;;;;;;;;;5035088;28;20074;-86
2022/07/21 13:26:28;;;;;;;10.48;9.32;;;;;;;;;;5052533;28;20013;-85
2022/07/21 13:28:54;;;;;;;9.60;8.70;;;;;;;;;;5040309;28;20033;-85
2022/07/21 13:31:21;;;;;;;9.93;8.82;;;;;;;;;;5054188;28;20111;-85
2022/07/21 13:33:47;;;;;;;9.63;8.63;;;;;;;;;;5053987;28;20024;-86
2022/07/21 13:36:13;;;;;;;9.60;8.60;;;;;;;;;;5069138;28;20024;-85
2022/07/21 13:38:39;;;;;;;10.18;8.63;;;;;;;;;;5069458;28;20028;-85
2022/07/21 13:41:06;;;;;;;9.90;8.88;;;;;;;;;;5053922;28;20436;-85
2022/07/21 13:43:32;;;;;;;10.88;9.18;;;;;;;;;;5056275;28;20107;-84
2022/07/21 13:45:58;;;;;;;10.90;8.82;;;;;;;;;;5034389;28;20119;-85
2022/07/21 13:48:24;;;;;;;12.30;8.98;;;;;;;;;;5031174;28;20036;-85
2022/07/21 13:50:50;;;;;;;10.10;9.10;;;;;;;;;;5014731;28;20541;-84
2022/07/21 13:53:16;;;;;;;9.90;8.90;;;;;;;;;;5015656;28;20486;-85
2022/07/21 13:55:42;;;;;;;9.70;8.27;;;;;;;;;;5018370;28;20478;-85
2022/07/21 13:58:08;;;;;;;10.00;8.85;;;;;;;;;;5038833;28;20025;-84
2022/07/21 14:00:34;;;;;;;10.63;9.27;;;;;;;;;;5048429;28;20040;-85
2022/07/21 14:03:01;;;;;;;11.57;8.88;;;;;;;;;;5041847;28;20083;-86
2022/07/21 14:05:27;;;;;;;10.52;8.30;;;;;;;;;;5031934;28;20036;-85
2022/07/21 14:07:53;;;;;;;10.30;8.48;;;;;;;;;;5031981;28;20033;-85
2022/07/21 14:10:19;;;;;;;9.93;8.73;;;;;;;;;;5031941;28;20021;-84
2022/07/21 14:12:45;;;;;;;9.73;8.68;;;;;;;;;;5063199;28;20390;-87
2022/07/21 14:15:11;;;;;;;10.35;9.05;;;;;;;;;;5038087;28;20029;-85
2022/07/21 14:17:38;;;;;;;10.18;8.85;;;;;;;;;;5051005;28;20112;-85
2022/07/21 14:20:04;;;;;;;11.15;9.02;;;;;;;;;;5038351;28;20034;-85
2022/07/21 14:22:30;;;;;;;10.82;8.80;;;;;;;;;;5032204;28;20025;-85
2022/07/21 14:27:41;;;;;;;9.43;8.43;;;;;;;;;;5051307;28;20044;-85
2022/07/21 14:30:07;;;;;;;10.70;8.48;;;;;;;;;;5052548;28;20017;-85
2022/07/21 14:32:33;;;;;;;9.00;8.00;;;;;;;;;;5034300;28;20028;-85
2022/07/21 14:34:59;;;;;;;9.10;8.20;;;;;;;;;;5056638;28;20041;-86
2022/07/21 14:37:26;;;;;;;8.82;7.93;;;;;;;;;;5037159;28;20037;-84
2022/07/21 14:39:53;;;;;;;10.77;8.48;;;;;;;;;;5033847;28;20026;-85
2022/07/21 14:42:19;;;;;;;9.65;7.60;;;;;;;;;;5049265;28;20033;-85
2022/07/21 14:44:45;;;;;;;9.45;8.30;;;;;;;;;;5050741;28;20358;-84